Time;durP1;ratioP1;P1;durP2;ratioP2;P2;SDS_P1;SDS_P2;PMS_P1;PMS_P2;Temp;Humidity;BMP_temperature;BMP_pressure;BME280_temperature;BME280_humidity;BME280_pressure;Samples;Min_cycle;Max_cycle;Signal;HPM_P1;HPM_P2
2023/07/31 00:02:49;;;;;;;2.00;1.80;;;;;;;19.45;44.49;99628.81;10309349;28;20834;-70
2023/07/31 00:07:51;;;;;;;2.70;2.00;;;;;;;19.00;44.85;99680.16;10308665;28;20333;-70
2023/07/31 00:12:53;;;;;;;5.10;2.40;;;;;;;18.61;45.27;99685.34;10314059;28;20240;-70
2023/07/31 00:17:55;;;;;;;3.37;1.87;;;;;;;18.14;46.21;99709.81;10314088;28;20256;-71
2023/07/31 00:22:56;;;;;;;3.03;1.70;;;;;;;18.26;46.02;99701.66;10313267;28;20237;-68
2023/07/31 00:27:58;;;;;;;3.77;2.17;;;;;;;19.27;45.32;99583.81;10309136;28;20791;-70
2023/07/31 00:33:00;;;;;;;3.03;2.23;;;;;;;18.28;46.30;99659.75;10312947;28;20240;-72
2023/07/31 00:38:02;;;;;;;6.00;2.20;;;;;;;19.20;45.03;99660.72;10305469;28;20234;-71
2023/07/31 00:43:03;;;;;;;4.37;1.97;;;;;;;18.16;46.63;99687.91;10274880;28;20792;-72
2023/07/31 00:48:06;;;;;;;2.60;2.10;;;;;;;18.06;47.29;99643.28;10276102;28;20325;-72
2023/07/31 00:53:08;;;;;;;2.30;2.10;;;;;;;18.06;47.96;99634.34;10313008;28;20664;-72
2023/07/31 00:58:10;;;;;;;2.50;2.27;;;;;;;17.81;48.69;99648.97;10315543;28;20261;-71
2023/07/31 01:03:12;;;;;;;4.33;2.30;;;;;;;18.07;48.20;99612.44;10313439;28;20293;-71
2023/07/31 01:08:23;;;;;;;4.23;2.30;;;;;;;17.64;49.38;99612.84;10313026;28;20685;-71
2023/07/31 01:13:25;;;;;;;5.13;2.17;;;;;;;18.41;47.45;99638.91;10311808;28;20238;-71
2023/07/31 01:18:27;;;;;;;3.63;2.43;;;;;;;17.67;49.07;99618.59;10311910;28;20233;-71
2023/07/31 01:23:50;;;;;;;5.17;2.50;;;;;;;17.10;49.92;99662.38;10311630;28;20619;-71
2023/07/31 01:29:00;;;;;;;4.43;2.50;;;;;;;17.18;50.52;99612.56;10312338;28;20237;-71
2023/07/31 01:34:03;;;;;;;5.00;2.67;;;;;;;17.73;48.85;99614.13;10312315;28;20291;-71
2023/07/31 01:39:05;;;;;;;5.37;2.50;;;;;;;17.49;49.30;99602.47;10310320;28;20331;-72
2023/07/31 01:44:07;;;;;;;2.40;1.90;;;;;;;17.41;49.56;99621.75;10311969;28;20268;-71
2023/07/31 01:49:08;;;;;;;4.27;2.13;;;;;;;16.84;49.99;99678.91;10310711;28;20234;-70
2023/07/31 01:54:11;;;;;;;5.73;2.50;;;;;;;17.21;50.05;99593.16;10311213;28;20316;-70
2023/07/31 01:59:12;;;;;;;3.57;2.40;;;;;;;16.92;50.16;99611.88;10309900;28;20845;-72
2023/07/31 02:04:14;;;;;;;5.10;2.57;;;;;;;16.95;50.40;99603.31;10313293;28;20242;-72
2023/07/31 02:09:16;;;;;;;2.80;2.30;;;;;;;17.47;49.77;99554.00;10310492;28;20230;-73
2023/07/31 02:14:17;;;;;;;3.57;2.60;;;;;;;17.38;49.96;99582.47;10314291;28;20237;-72
2023/07/31 02:19:19;;;;;;;6.03;2.20;;;;;;;17.26;50.43;99577.06;10307173;28;20250;-70
2023/07/31 02:24:21;;;;;;;2.90;2.47;;;;;;;17.22;50.46;99573.16;10310267;28;20332;-72
2023/07/31 02:29:22;;;;;;;2.53;2.27;;;;;;;16.61;50.65;99632.66;10308344;28;20231;-71
2023/07/31 02:34:24;;;;;;;2.87;2.27;;;;;;;17.24;49.97;99554.00;10308924;28;20244;-71
2023/07/31 02:39:26;;;;;;;4.53;2.37;;;;;;;16.91;50.70;99585.09;10310732;28;20329;-70
2023/07/31 02:44:28;;;;;;;5.33;2.30;;;;;;;16.64;50.82;99627.88;10314247;28;20237;-71
2023/07/31 02:49:29;;;;;;;2.53;2.27;;;;;;;16.98;50.41;99564.22;10304975;28;20309;-72
2023/07/31 02:54:31;;;;;;;3.13;2.20;;;;;;;16.54;50.69;99631.13;10307469;28;20317;-72
2023/07/31 02:59:33;;;;;;;6.93;2.60;;;;;;;17.23;49.07;99607.28;10310487;28;20237;-72
2023/07/31 03:04:34;;;;;;;3.57;2.20;;;;;;;17.30;49.37;99613.38;10306393;28;20316;-69
2023/07/31 03:09:36;;;;;;;3.43;2.43;;;;;;;16.68;50.09;99678.50;10306327;28;20321;-71
2023/07/31 03:14:38;;;;;;;4.27;2.40;;;;;;;17.08;50.16;99566.34;10304615;28;20324;-71
2023/07/31 03:19:39;;;;;;;3.63;2.00;;;;;;;17.13;49.31;99604.31;10307503;28;20237;-70
2023/07/31 03:24:41;;;;;;;3.17;2.30;;;;;;;17.47;48.28;99650.56;10304844;28;20234;-72
2023/07/31 03:29:43;;;;;;;2.97;2.40;;;;;;;17.29;49.13;99627.13;10308884;28;20337;-72
2023/07/31 03:34:44;;;;;;;4.23;2.47;;;;;;;17.34;49.28;99595.66;10305776;28;20324;-69
2023/07/31 03:39:46;;;;;;;3.13;2.40;;;;;;;16.34;50.53;99686.19;10307896;28;20329;-71
2023/07/31 03:44:48;;;;;;;3.30;2.37;;;;;;;16.83;49.88;99651.09;10308223;28;20236;-71
2023/07/31 03:49:49;;;;;;;2.70;2.20;;;;;;;17.39;49.13;99631.97;10317044;28;20279;-72
2023/07/31 03:54:51;;;;;;;3.57;2.03;;;;;;;17.32;49.33;99622.09;10309044;28;20229;-71
2023/07/31 03:59:53;;;;;;;5.97;2.30;;;;;;;17.19;49.29;99657.44;10313965;28;20238;-72
2023/07/31 04:04:54;;;;;;;2.83;2.50;;;;;;;17.44;49.56;99592.34;10315233;28;20226;-71
2023/07/31 04:09:57;;;;;;;2.97;2.40;;;;;;;16.78;50.45;99654.47;10314031;28;20257;-71
2023/07/31 04:14:59;;;;;;;4.03;2.40;;;;;;;16.09;52.05;99671.91;10321044;28;20799;-71
2023/07/31 04:20:01;;;;;;;4.60;2.90;;;;;;;16.61;51.47;99594.84;10311439;28;20257;-71
2023/07/31 04:25:02;;;;;;;5.20;2.33;;;;;;;16.29;51.79;99667.13;10318173;28;20287;-72
2023/07/31 04:30:05;;;;;;;3.67;2.30;;;;;;;16.50;51.57;99633.47;10315591;28;20682;-71
2023/07/31 04:35:07;;;;;;;3.80;2.60;;;;;;;16.14;52.48;99627.00;10315619;28;20238;-71
2023/07/31 04:40:09;;;;;;;4.57;2.40;;;;;;;16.83;51.66;99563.81;10317098;28;20317;-72
2023/07/31 04:45:11;;;;;;;2.60;2.37;;;;;;;16.55;51.89;99576.88;10315148;28;20828;-72
2023/07/31 04:50:12;;;;;;;2.57;2.20;;;;;;;15.75;53.68;99650.66;10311456;28;20811;-71
2023/07/31 04:55:14;;;;;;;6.23;3.00;;;;;;;16.60;52.00;99581.56;10309299;28;20317;-70
2023/07/31 05:00:16;;;;;;;3.67;2.30;;;;;;;16.39;52.46;99601.81;10309195;28;20907;-70
2023/07/31 05:05:18;;;;;;;5.33;2.60;;;;;;;15.73;53.45;99657.31;10314400;28;20237;-70
2023/07/31 05:10:20;;;;;;;4.77;2.60;;;;;;;16.70;52.31;99557.56;10306365;28;20569;-70
2023/07/31 05:15:21;;;;;;;4.30;2.73;;;;;;;16.42;52.45;99612.16;10317537;28;20269;-69
2023/07/31 05:20:23;;;;;;;4.53;2.30;;;;;;;16.32;52.39;99601.91;10310267;28;20241;-69
2023/07/31 05:25:25;;;;;;;2.93;2.37;;;;;;;16.21;52.47;99652.06;10314068;28;20275;-69
2023/07/31 05:30:29;;;;;;;4.27;2.50;;;;;;;17.02;51.37;99608.63;10310754;28;20722;-69
2023/07/31 05:35:31;;;;;;;5.23;2.27;;;;;;;17.08;51.62;99566.34;10315749;28;20245;-69
2023/07/31 05:40:33;;;;;;;3.30;2.67;;;;;;;16.75;51.96;99646.00;10312155;28;20615;-69
2023/07/31 05:45:36;;;;;;;4.10;2.80;;;;;;;17.21;51.00;99613.94;10316531;28;20233;-69
2023/07/31 05:50:41;;;;;;;4.83;2.33;;;;;;;17.64;50.42;99618.25;10313930;28;20752;-69
2023/07/31 05:55:43;;;;;;;2.67;2.47;;;;;;;17.04;50.76;99687.63;10312694;28;20265;-69
2023/07/31 06:00:44;;;;;;;4.50;2.80;;;;;;;17.53;50.53;99598.25;10306507;28;20238;-69
2023/07/31 06:05:46;;;;;;;3.63;2.60;;;;;;;17.97;49.93;99574.34;10307956;28;20233;-69
2023/07/31 06:10:48;;;;;;;4.80;2.57;;;;;;;16.77;51.26;99730.38;10306631;28;20828;-69
2023/07/31 06:15:50;;;;;;;8.10;2.70;;;;;;;17.24;50.43;99703.56;10313062;28;20401;-69
2023/07/31 06:20:53;;;;;;;4.23;2.30;;;;;;;17.61;50.48;99630.34;10307122;28;20986;-69
2023/07/31 06:25:55;;;;;;;3.43;2.33;;;;;;;17.05;51.44;99664.13;10306477;28;20233;-69
2023/07/31 06:30:58;;;;;;;5.07;2.20;;;;;;;17.53;50.33;99633.41;10307157;28;20226;-69
2023/07/31 06:36:00;;;;;;;3.17;2.00;;;;;;;18.02;49.72;99603.41;10305206;28;20795;-69
2023/07/31 06:41:01;;;;;;;3.10;2.40;;;;;;;18.22;49.59;99606.53;10305848;28;20535;-70
2023/07/31 06:46:07;;;;;;;4.37;2.60;;;;;;;17.70;50.35;99610.03;10301055;28;20233;-69
2023/07/31 06:51:09;;;;;;;3.63;2.70;;;;;;;17.45;50.90;99639.97;10303659;28;20636;-69
2023/07/31 06:56:10;;;;;;;4.03;2.50;;;;;;;17.13;50.69;99682.72;10310310;28;20926;-69
2023/07/31 07:01:12;;;;;;;4.20;2.50;;;;;;;17.88;49.34;99657.81;10300065;28;20241;-69
2023/07/31 07:06:14;;;;;;;3.80;2.30;;;;;;;18.25;49.27;99580.84;10305615;28;20237;-70
2023/07/31 07:11:15;;;;;;;2.57;2.13;;;;;;;17.87;49.89;99642.59;10302844;28;20316;-70
2023/07/31 07:16:17;;;;;;;3.10;2.33;;;;;;;17.31;50.23;99688.06;10306896;28;20302;-70
2023/07/31 07:21:19;;;;;;;3.60;2.77;;;;;;;18.45;48.64;99659.00;10308207;28;20241;-70
2023/07/31 07:26:21;;;;;;;4.47;2.20;;;;;;;17.60;49.55;99703.66;10317199;28;20327;-70
2023/07/31 07:31:23;;;;;;;5.07;2.53;;;;;;;18.70;48.89;99601.78;10313752;28;20230;-70
2023/07/31 07:36:24;;;;;;;6.30;2.20;;;;;;;18.14;49.21;99616.94;10317871;28;20245;-70
2023/07/31 07:41:26;;;;;;;5.47;2.83;;;;;;;18.95;47.92;99554.53;10317026;28;20601;-70
2023/07/31 07:46:28;;;;;;;2.40;1.90;;;;;;;19.34;47.99;99598.00;10312402;28;20812;-70
2023/07/31 07:51:31;;;;;;;3.77;2.43;;;;;;;18.20;48.90;99692.63;10315738;28;20241;-75
2023/07/31 07:56:33;;;;;;;5.03;2.57;;;;;;;19.52;47.11;99567.09;10316643;28;20237;-72
2023/07/31 08:01:35;;;;;;;3.33;2.00;;;;;;;19.50;47.01;99580.06;10313063;28;23298;-69
2023/07/31 08:06:37;;;;;;;3.37;2.30;;;;;;;18.99;47.25;99637.84;10310939;28;20332;-69
2023/07/31 08:11:39;;;;;;;3.17;2.27;;;;;;;19.67;46.94;99597.19;10313999;28;20677;-66
2023/07/31 08:16:41;;;;;;;4.73;2.60;;;;;;;19.39;47.47;99617.09;10312522;28;20325;-68
2023/07/31 08:21:43;;;;;;;5.53;2.70;;;;;;;19.07;47.83;99598.66;10310506;28;20754;-66
2023/07/31 08:26:45;;;;;;;5.67;2.50;;;;;;;18.77;47.79;99637.69;10312297;28;20242;-68
2023/07/31 08:31:47;;;;;;;6.60;2.73;;;;;;;18.89;47.93;99598.84;10307748;28;20288;-66
2023/07/31 08:36:49;;;;;;;4.27;2.40;;;;;;;20.00;46.38;99556.59;10312152;28;20238;-67
2023/07/31 08:41:50;;;;;;;5.35;3.00;;;;;;;19.50;47.10;99624.31;10313728;28;20379;-68
2023/07/31 08:46:54;;;;;;;6.70;2.60;;;;;;;19.04;47.94;99625.44;10311101;28;20237;-69
2023/07/31 08:51:57;;;;;;;4.85;2.38;;;;;;;19.74;46.45;99608.69;10312995;28;20316;-68
2023/07/31 08:57:00;;;;;;;2.92;2.10;;;;;;;20.23;46.04;99550.13;10318215;28;20317;-69
2023/07/31 09:02:06;;;;;;;3.38;2.35;;;;;;;19.37;46.00;99601.03;10312543;28;20233;-69
2023/07/31 09:07:09;;;;;;;4.13;2.30;;;;;;;20.76;44.37;99525.91;10310884;28;20237;-69
2023/07/31 09:12:10;;;;;;;4.65;2.50;;;;;;;19.22;45.32;99633.34;10306773;28;20578;-69
2023/07/31 09:17:12;;;;;;;4.07;2.33;;;;;;;20.48;44.77;99549.53;10269616;28;20807;-69
2023/07/31 09:22:14;;;;;;;4.47;2.38;;;;;;;19.98;44.52;99518.03;10265690;28;20325;-70
2023/07/31 09:27:16;;;;;;;3.80;2.40;;;;;;;19.74;43.91;99591.56;10273126;28;20326;-69
2023/07/31 09:32:18;;;;;;;4.10;2.65;;;;;;;19.70;44.38;99585.00;10306635;28;20653;-70
2023/07/31 09:37:19;;;;;;;4.53;2.60;;;;;;;20.89;43.62;99552.69;10262024;28;20227;-69
2023/07/31 09:42:28;;;;;;;4.25;2.92;;;;;;;19.95;43.88;99570.94;10257964;28;20231;-70
2023/07/31 09:47:30;;;;;;;4.28;2.15;;;;;;;20.29;44.16;99558.06;10308152;28;20230;-69
2023/07/31 09:52:32;;;;;;;7.05;2.80;;;;;;;20.65;43.54;99520.38;10310595;28;20234;-69
2023/07/31 09:57:36;;;;;;;3.97;2.25;;;;;;;20.72;43.66;99508.47;10268553;28;20261;-70
2023/07/31 10:02:39;;;;;;;5.68;2.65;;;;;;;20.71;42.87;99523.94;10272498;28;20279;-70
2023/07/31 10:07:45;;;;;;;3.17;2.53;;;;;;;21.27;43.17;99468.34;10269716;28;20250;-70
2023/07/31 10:12:49;;;;;;;5.70;2.35;;;;;;;20.39;43.95;99532.06;10266902;28;20322;-69
2023/07/31 10:17:53;;;;;;;4.35;2.55;;;;;;;20.61;43.37;99510.28;10269965;28;20250;-69
2023/07/31 10:22:56;;;;;;;6.28;2.70;;;;;;;20.74;43.72;99507.13;10266576;28;20258;-68
2023/07/31 10:27:59;;;;;;;5.90;2.10;;;;;;;20.52;43.89;99503.69;10269228;28;20249;-68
2023/07/31 10:33:02;;;;;;;2.92;2.20;;;;;;;20.38;43.92;99504.09;10266306;28;20314;-68
2023/07/31 10:38:12;;;;;;;3.47;2.20;;;;;;;21.40;43.37;99437.97;10272209;28;20256;-70
2023/07/31 10:43:26;;;;;;;5.13;2.60;;;;;;;20.21;44.87;99484.34;10308479;28;20823;-70
2023/07/31 10:48:33;;;;;;;5.30;2.53;;;;;;;20.90;44.30;99471.91;10309146;28;20240;-70
2023/07/31 10:53:36;;;;;;;5.40;2.60;;;;;;;20.80;43.75;99472.66;10306262;28;20237;-69
2023/07/31 10:58:37;;;;;;;7.35;2.72;;;;;;;21.82;43.38;99428.06;10305430;28;20281;-68
2023/07/31 11:06:20;;;;;;;4.32;2.10;;;;;;;18.78;47.69;99459.63;10364479;28;21325;-69
2023/07/31 11:11:22;;;;;;;4.32;2.60;;;;;;;20.49;46.00;99369.94;10365224;28;20240;-67
2023/07/31 11:16:25;;;;;;;3.90;2.47;;;;;;;20.46;45.58;99358.75;10386032;28;20239;-70
2023/07/31 11:21:28;;;;;;;4.82;2.83;;;;;;;20.45;46.34;99373.44;10384720;28;20687;-68
2023/07/31 11:26:30;;;;;;;5.13;2.65;;;;;;;20.90;45.31;99342.19;10375371;28;20732;-68
2023/07/31 11:31:39;;;;;;;5.57;3.03;;;;;;;20.18;46.84;99406.09;10377993;28;20323;-68
2023/07/31 11:36:40;;;;;;;4.60;2.28;;;;;;;19.79;46.07;99417.91;10370540;28;20241;-70
2023/07/31 11:41:43;;;;;;;4.40;2.38;;;;;;;19.37;46.64;99407.63;10381134;28;20481;-71
2023/07/31 11:46:44;;;;;;;5.35;2.53;;;;;;;19.88;46.55;99370.22;10374559;28;20302;-71
2023/07/31 11:51:46;;;;;;;5.65;2.55;;;;;;;20.12;46.55;99383.47;10376284;28;20849;-67
2023/07/31 11:56:49;;;;;;;6.95;2.60;;;;;;;20.30;46.46;99352.41;10372988;28;20235;-74
2023/07/31 12:01:53;;;;;;;7.85;2.25;;;;;;;20.10;45.44;99393.78;10382297;28;20302;-72
2023/07/31 12:06:55;;;;;;;4.43;2.63;;;;;;;20.80;45.05;99347.59;10386302;28;21161;-71
2023/07/31 12:11:59;;;;;;;4.82;2.75;;;;;;;21.20;45.35;99321.66;10377728;28;20221;-72
2023/07/31 12:17:04;;;;;;;5.43;2.53;;;;;;;20.39;44.40;99434.25;10362936;28;20279;-72
2023/07/31 12:22:13;;;;;;;5.20;2.75;;;;;;;21.53;44.54;99371.34;10354912;28;20670;-72
2023/07/31 12:27:16;;;;;;;5.82;2.30;;;;;;;20.74;44.84;99371.19;10355092;28;20740;-72
2023/07/31 12:32:23;;;;;;;4.13;2.30;;;;;;;21.05;44.54;99349.63;10353965;28;20325;-68
2023/07/31 12:37:26;;;;;;;4.72;2.40;;;;;;;21.35;44.09;99359.81;10356021;28;20300;-71
2023/07/31 12:42:27;;;;;;;4.38;2.25;;;;;;;20.81;44.60;99369.06;10356217;28;20335;-68
2023/07/31 12:47:30;;;;;;;2.35;2.15;;;;;;;21.70;44.46;99339.25;10353648;28;20291;-71
2023/07/31 12:52:31;;;;;;;4.35;2.30;;;;;;;21.08;44.72;99340.13;10357205;28;20217;-70
2023/07/31 12:57:33;;;;;;;5.00;2.40;;;;;;;20.79;45.37;99368.53;10350950;28;20232;-67
2023/07/31 13:02:37;;;;;;;2.70;2.17;;;;;;;20.91;44.40;99362.06;10349697;28;20320;-67
2023/07/31 13:07:40;;;;;;;3.45;2.15;;;;;;;20.81;45.11;99344.63;10351916;28;20278;-69
2023/07/31 13:12:42;;;;;;;5.68;2.80;;;;;;;21.47;44.80;99298.91;10351356;28;20243;-71
2023/07/31 13:17:43;;;;;;;5.03;2.40;;;;;;;21.46;44.71;99308.16;10351714;28;20787;-71
2023/07/31 13:22:45;;;;;;;4.10;2.03;;;;;;;21.27;44.53;99297.75;10353556;28;20221;-66
2023/07/31 13:27:47;;;;;;;3.38;2.40;;;;;;;21.37;44.29;99256.16;10347037;28;20315;-69
2023/07/31 13:32:49;;;;;;;5.03;2.70;;;;;;;21.47;44.44;99312.53;10349372;28;20213;-71
2023/07/31 13:37:51;;;;;;;3.85;2.30;;;;;;;21.68;44.87;99276.09;10356985;28;20243;-70
2023/07/31 13:42:54;;;;;;;4.35;2.50;;;;;;;21.47;44.26;99261.63;10351367;28;20239;-71
2023/07/31 13:47:56;;;;;;;7.78;2.42;;;;;;;21.81;43.94;99301.13;10351876;28;20241;-73
2023/07/31 13:52:58;;;;;;;4.00;2.22;;;;;;;22.24;43.53;99274.47;10351341;28;20261;-71
2023/07/31 13:57:59;;;;;;;3.63;1.98;;;;;;;22.09;44.85;99239.88;10351266;28;20743;-71
2023/07/31 14:03:01;;;;;;;5.15;2.28;;;;;;;21.66;44.33;99250.22;10350231;28;20335;-68
2023/07/31 14:08:03;;;;;;;4.13;2.65;;;;;;;22.03;43.71;99284.56;10354560;28;20237;-71
2023/07/31 14:13:05;;;;;;;4.15;2.30;;;;;;;21.52;43.97;99315.25;10350759;28;20372;-69
2023/07/31 14:18:06;;;;;;;2.45;1.90;;;;;;;21.62;44.03;99290.78;10348946;28;20331;-70
2023/07/31 14:23:08;;;;;;;5.97;2.10;;;;;;;21.70;44.86;99292.16;10342535;28;20248;-70
2023/07/31 14:28:10;;;;;;;4.65;2.35;;;;;;;21.56;44.01;99273.63;10349766;28;20240;-69
2023/07/31 14:33:12;;;;;;;4.78;2.15;;;;;;;22.58;42.10;99219.34;10354025;28;20276;-72
2023/07/31 14:38:14;;;;;;;4.72;2.35;;;;;;;22.25;42.87;99257.00;10355982;28;20290;-74
2023/07/31 14:43:15;;;;;;;6.40;2.63;;;;;;;21.94;43.59;99260.59;10355200;28;20328;-66
2023/07/31 14:48:17;;;;;;;4.10;2.78;;;;;;;22.43;42.90;99214.72;10349091;28;20240;-67
2023/07/31 14:53:19;;;;;;;5.60;2.28;;;;;;;22.23;43.30;99216.41;10356366;28;20328;-69
2023/07/31 14:58:20;;;;;;;4.68;2.53;;;;;;;22.25;42.59;99219.69;10352855;28;20320;-66
2023/07/31 15:05:20;;;;;;;3.05;2.35;;;;;;;20.65;45.93;99115.34;10394710;28;20815;-69
2023/07/31 15:10:21;;;;;;;4.15;2.25;;;;;;;21.16;45.10;99165.53;10307631;28;20357;-68
2023/07/31 15:15:23;;;;;;;2.92;2.58;;;;;;;21.76;44.71;99138.56;10300835;28;20723;-67
2023/07/31 15:20:25;;;;;;;4.22;2.40;;;;;;;20.91;46.03;99180.69;10297853;28;21096;-66
2023/07/31 15:25:27;;;;;;;4.53;2.53;;;;;;;21.20;45.73;99129.31;10295884;28;20692;-69
2023/07/31 15:30:29;;;;;;;4.90;2.50;;;;;;;21.32;45.58;99114.63;10318388;28;20233;-70
2023/07/31 15:35:31;;;;;;;3.53;2.22;;;;;;;21.14;45.76;99129.59;10339303;28;20320;-72
2023/07/31 15:40:33;;;;;;;3.45;2.10;;;;;;;21.09;46.48;99115.97;10338686;28;20234;-70
2023/07/31 15:45:34;;;;;;;4.82;2.42;;;;;;;20.15;48.14;99195.53;10339328;28;20252;-70
2023/07/31 15:50:36;;;;;;;3.30;2.50;;;;;;;20.60;48.96;99150.69;10339633;28;20315;-70
2023/07/31 15:55:38;;;;;;;3.47;2.65;;;;;;;20.69;49.36;99102.84;10339760;28;20248;-70
2023/07/31 16:00:39;;;;;;;6.43;4.38;;;;;;;20.88;49.36;99098.84;10339995;28;20245;-69
2023/07/31 16:05:41;;;;;;;4.15;2.70;;;;;;;20.62;49.85;99098.78;10336858;28;20320;-73
2023/07/31 16:10:43;;;;;;;9.45;4.95;;;;;;;20.82;49.85;99149.69;10339267;28;20346;-68
2023/07/31 16:15:45;;;;;;;8.38;4.60;;;;;;;21.73;49.74;99079.25;10319293;28;20241;-70
2023/07/31 16:20:46;;;;;;;5.85;2.70;;;;;;;21.87;48.66;99074.03;10312254;28;20244;-70
2023/07/31 16:25:48;;;;;;;6.05;2.78;;;;;;;21.21;49.55;99089.34;10312720;28;20234;-67
2023/07/31 16:30:50;;;;;;;3.75;2.63;;;;;;;21.44;48.88;99089.91;10313527;28;20248;-68
2023/07/31 16:35:52;;;;;;;3.10;2.30;;;;;;;20.98;49.28;99105.09;10315725;28;20225;-70
2023/07/31 16:40:54;;;;;;;5.18;2.83;;;;;;;21.12;48.85;99070.03;10318323;28;20336;-72
2023/07/31 16:45:56;;;;;;;3.30;2.40;;;;;;;21.94;47.43;99071.84;10324528;28;20230;-71
2023/07/31 16:50:58;;;;;;;3.67;2.42;;;;;;;21.08;49.26;99126.06;10316093;28;20926;-71
2023/07/31 16:56:00;;;;;;;5.07;2.80;;;;;;;21.83;47.78;99089.28;10315482;28;20230;-68
2023/07/31 17:01:03;;;;;;;3.70;2.40;;;;;;;21.76;48.01;99084.94;10315406;28;20326;-69
2023/07/31 17:06:04;;;;;;;4.32;2.60;;;;;;;21.70;47.65;99056.09;10315583;28;20721;-69
2023/07/31 17:11:06;;;;;;;3.40;2.40;;;;;;;21.37;48.63;99055.63;10313829;28;20238;-70
2023/07/31 17:16:08;;;;;;;3.63;2.50;;;;;;;20.13;50.04;99138.78;10312102;28;20308;-70
2023/07/31 17:21:10;;;;;;;4.55;2.53;;;;;;;20.91;49.38;99076.56;10319280;28;20770;-70
2023/07/31 17:26:13;;;;;;;4.25;2.70;;;;;;;21.18;48.42;99059.97;10312254;28;20233;-70
2023/07/31 17:31:14;;;;;;;4.90;3.13;;;;;;;21.03;48.73;99080.63;10313438;28;20614;-67
2023/07/31 17:36:16;;;;;;;5.00;2.70;;;;;;;21.26;48.13;99097.50;10315514;28;20853;-66
2023/07/31 17:41:18;;;;;;;5.80;2.60;;;;;;;21.51;48.52;99083.09;10318579;28;20230;-69
2023/07/31 17:46:20;;;;;;;3.08;2.25;;;;;;;19.47;51.29;99179.84;10311640;28;20265;-66
2023/07/31 17:51:21;;;;;;;3.30;2.28;;;;;;;20.61;50.84;99069.94;10314163;28;20288;-67
2023/07/31 17:56:23;;;;;;;5.68;2.95;;;;;;;20.34;52.59;99102.75;10310281;28;20230;-69
2023/07/31 18:01:25;;;;;;;4.70;2.55;;;;;;;19.43;54.53;99110.06;10311554;28;20327;-68
2023/07/31 18:06:28;;;;;;;3.75;2.55;;;;;;;19.30;56.25;99081.47;10309371;28;20230;-68
2023/07/31 18:11:31;;;;;;;6.45;3.78;;;;;;;19.47;55.06;99087.59;10312801;28;20233;-68
2023/07/31 18:16:33;;;;;;;5.75;2.88;;;;;;;20.19;53.52;99041.84;10317146;28;20233;-68
2023/07/31 18:21:35;;;;;;;4.95;2.90;;;;;;;20.75;51.89;99067.53;10311104;28;20229;-68
2023/07/31 18:26:38;;;;;;;4.28;2.70;;;;;;;20.88;51.58;99096.94;10310114;28;20241;-68
2023/07/31 18:31:40;;;;;;;5.40;3.20;;;;;;;20.16;52.54;99121.13;10309454;28;20238;-68
2023/07/31 18:36:42;;;;;;;3.75;2.67;;;;;;;19.45;54.23;99145.88;10310786;28;20241;-75
2023/07/31 18:41:44;;;;;;;3.50;2.70;;;;;;;19.01;55.03;99114.31;10311702;28;20229;-66
2023/07/31 18:46:46;;;;;;;6.80;2.78;;;;;;;19.61;53.84;99098.03;10308906;28;20771;-67
2023/07/31 18:51:48;;;;;;;4.95;3.00;;;;;;;19.20;54.79;99091.19;10316825;28;20233;-66
2023/07/31 18:56:49;;;;;;;4.78;3.00;;;;;;;19.10;54.53;99066.69;10315846;28;20233;-66
2023/07/31 19:01:51;;;;;;;4.20;3.03;;;;;;;19.42;53.06;99103.84;10317936;28;20287;-68
2023/07/31 19:06:53;;;;;;;3.00;2.60;;;;;;;19.10;53.30;99099.22;10313173;28;20775;-66
2023/07/31 19:11:55;;;;;;;3.58;2.50;;;;;;;18.71;53.55;99131.91;10313947;28;20229;-67
2023/07/31 19:16:56;;;;;;;3.03;2.28;;;;;;;19.18;52.74;99106.91;10316094;28;20229;-70
2023/07/31 19:21:58;;;;;;;3.85;2.50;;;;;;;19.66;52.10;99106.19;10310979;28;20248;-67
2023/07/31 19:27:00;;;;;;;3.63;2.65;;;;;;;19.39;52.69;99137.72;10313048;28;20321;-67
2023/07/31 19:32:02;;;;;;;3.03;2.50;;;;;;;19.84;52.34;99091.34;10317661;28;20261;-66
2023/07/31 19:37:03;;;;;;;3.40;2.70;;;;;;;19.44;53.17;99123.38;10308093;28;20245;-67
2023/07/31 19:42:05;;;;;;;3.45;2.67;;;;;;;19.58;52.48;99161.75;10309877;28;20300;-66
2023/07/31 19:47:07;;;;;;;8.45;3.30;;;;;;;19.06;54.08;99152.31;10314570;28;20325;-67
2023/07/31 19:52:09;;;;;;;3.53;2.78;;;;;;;19.50;53.76;99116.91;10318233;28;20249;-68
2023/07/31 19:57:10;;;;;;;3.45;2.63;;;;;;;18.70;55.90;99154.63;10321591;28;20233;-65
2023/07/31 20:02:12;;;;;;;5.25;3.40;;;;;;;19.22;55.95;99079.28;10317625;28;20329;-66
2023/07/31 20:07:14;;;;;;;4.00;2.85;;;;;;;19.33;55.37;99089.94;10318583;28;20312;-68
2023/07/31 20:12:15;;;;;;;4.05;2.90;;;;;;;19.23;55.49;99108.81;10318687;28;20233;-67
2023/07/31 20:17:17;;;;;;;6.93;3.03;;;;;;;19.68;55.34;99014.47;10316646;28;20230;-69
2023/07/31 20:22:19;;;;;;;9.68;3.03;;;;;;;18.70;56.69;99110.47;10321431;28;20306;-68
2023/07/31 20:27:22;;;;;;;4.95;3.30;;;;;;;18.57;57.44;99077.28;10316193;28;20237;-67
2023/07/31 20:32:23;;;;;;;4.32;2.78;;;;;;;18.97;56.16;99053.56;10318084;28;20237;-66
2023/07/31 20:37:26;;;;;;;4.95;2.97;;;;;;;18.77;57.07;99033.31;10314300;28;20600;-66
2023/07/31 20:42:28;;;;;;;5.38;3.40;;;;;;;19.12;55.28;99059.13;10318486;28;20293;-65
2023/07/31 20:47:30;;;;;;;4.93;2.75;;;;;;;19.42;54.64;99021.59;10317652;28;20728;-66
2023/07/31 20:52:31;;;;;;;5.80;3.30;;;;;;;18.96;55.04;99050.06;10320825;28;20222;-66
2023/07/31 20:57:33;;;;;;;4.15;2.85;;;;;;;19.08;54.77;99036.31;10320620;28;20239;-65
2023/07/31 21:02:35;;;;;;;5.45;3.03;;;;;;;18.92;55.21;99012.84;10319551;28;20252;-66
2023/07/31 21:07:38;;;;;;;4.35;3.13;;;;;;;19.41;54.38;98977.41;10314419;28;20241;-66
2023/07/31 21:12:40;;;;;;;5.13;3.00;;;;;;;19.11;55.03;99016.00;10316328;28;20765;-67
2023/07/31 21:17:42;;;;;;;4.20;3.00;;;;;;;19.05;54.94;99017.84;10315941;28;20246;-66
2023/07/31 21:22:44;;;;;;;4.57;2.78;;;;;;;18.52;56.13;99003.25;10316805;28;20383;-67
2023/07/31 21:27:47;;;;;;;8.57;3.35;;;;;;;18.00;57.22;99002.72;10320242;28;20321;-67
2023/07/31 21:32:49;;;;;;;4.80;3.17;;;;;;;17.76;58.30;98987.78;10319643;28;20296;-67
2023/07/31 21:37:54;;;;;;;7.83;3.30;;;;;;;18.62;56.07;98993.34;10312625;28;20233;-67
2023/07/31 21:42:56;;;;;;;6.40;3.40;;;;;;;18.20;56.67;99039.19;10315960;28;20225;-67
2023/07/31 21:47:58;;;;;;;5.10;3.60;;;;;;;18.97;56.19;98939.72;10314371;28;20245;-66
2023/07/31 21:53:00;;;;;;;4.10;2.92;;;;;;;19.08;55.08;98965.81;10314797;28;20202;-69
2023/07/31 21:58:02;;;;;;;5.00;3.15;;;;;;;19.73;53.67;98933.06;10316546;28;20331;-68
2023/07/31 22:03:03;;;;;;;4.43;3.30;;;;;;;19.52;55.16;98878.72;10314591;28;20269;-69
2023/07/31 22:08:05;;;;;;;4.90;3.47;;;;;;;19.88;53.68;98892.41;10316281;28;21010;-69
2023/07/31 22:13:07;;;;;;;4.30;3.35;;;;;;;18.63;56.46;98954.34;10315518;28;20296;-69
2023/07/31 22:18:09;;;;;;;5.10;3.60;;;;;;;20.09;54.25;98857.13;10315733;28;20245;-69
2023/07/31 22:23:11;;;;;;;7.18;4.03;;;;;;;18.73;56.97;98923.00;10316596;28;20975;-69
2023/07/31 22:28:12;;;;;;;5.57;3.43;;;;;;;19.88;54.84;98832.69;10314320;28;20324;-69
2023/07/31 22:33:21;;;;;;;7.03;3.87;;;;;;;20.06;54.48;98815.06;10312488;28;20241;-69
2023/07/31 22:38:23;;;;;;;6.80;3.10;;;;;;;19.76;55.14;98819.38;10315194;28;20320;-69
2023/07/31 22:43:25;;;;;;;4.82;3.10;;;;;;;18.60;57.06;98913.41;10308732;28;20256;-69
2023/07/31 22:48:27;;;;;;;5.07;3.60;;;;;;;19.04;56.68;98840.00;10309846;28;20237;-69
2023/07/31 22:53:32;;;;;;;5.33;3.40;;;;;;;18.80;57.17;98855.81;10312907;28;20570;-69
2023/07/31 22:58:34;;;;;;;3.93;3.43;;;;;;;18.48;58.24;98864.00;10314542;28;20237;-69
2023/07/31 23:03:36;;;;;;;5.18;3.30;;;;;;;17.71;60.42;98870.31;10311310;28;20969;-69
2023/07/31 23:08:38;;;;;;;5.87;3.70;;;;;;;18.29;59.62;98812.97;10314659;28;20244;-69
2023/07/31 23:13:40;;;;;;;6.33;3.27;;;;;;;18.79;57.72;98832.50;10312550;28;20241;-69
2023/07/31 23:18:42;;;;;;;4.50;3.40;;;;;;;18.22;59.75;98805.03;10312761;28;20238;-70
2023/07/31 23:23:44;;;;;;;5.73;3.70;;;;;;;18.41;59.11;98818.19;10315997;28;20243;-70
2023/07/31 23:28:46;;;;;;;6.17;3.73;;;;;;;18.13;60.30;98833.63;10318197;28;20236;-69